Iris Halo — 3ECA8 — position and weather

sailwx.info

Track history (hours):
 
Tides and Currents Weather Stations Pressure Air Temp Water Temp Dewpoint Dewpoint Depression Visibility Wind Speed Wind Dir Waves Ship Positions

Iris Halo

Last reported at 2017-Sep-15 13:23 UTC. Time now 2017-Sep-20 21:52 UTC.
Position N 32°10' W 125°17'.

Length 190 m; draft 10.9 m.

Type: Cargo ship. MMSI: 371281000.

Date/timePositionNaut miles runAvg speedWind from/ knotsBaromVisibWave heightAir tempDewpointWater temp
2017-Sep-15 13:23N 32°10' W 125°17'411.0
2017-Sep-15 13:00N 32°07' W 125°13'611.0
2017-Sep-15 12:29N 32°04' W 125°07'2011.0
2017-Sep-15 10:39N 31°54' W 124°47'211.2
2017-Sep-15 10:30N 31°53' W 124°45'1211.3
2017-Sep-15 09:24N 31°47' W 124°33'511.2
2017-Sep-15 08:57N 31°44' W 124°27'511.1
2017-Sep-15 08:30N 31°42' W 124°23'611.2
2017-Sep-15 08:00N 31°39' W 124°17'1111.2
2017-Sep-15 07:00N 31°33' W 124°06'611.0
2017-Sep-15 06:27N 31°30' W 123°60'511.0
2017-Sep-15 06:00N 31°27' W 123°55'610.9
2017-Sep-15 05:30N 31°24' W 123°50'510.7
2017-Sep-15 05:00N 31°21' W 123°44'510.7
2017-Sep-15 04:30N 31°18' W 123°39'610.7
2017-Sep-15 03:57N 31°15' W 123°33'510.6
2017-Sep-15 03:30N 31°12' W 123°29'510.7
2017-Sep-15 03:00N 31°09' W 123°23'610.7
2017-Sep-15 02:29N 31°07' W 123°18'510.6
2017-Sep-15 02:00N 31°04' W 123°13'510.8
2017-Sep-15 01:30N 31°01' W 123°07'510.6
2017-Sep-15 01:00N 30°59' W 123°02'510.7
2017-Sep-15 00:30N 30°56' W 122°56'20110.2
2017-Sep-14 04:46N 30°52' W 119°03'410.9
2017-Sep-14 04:23N 30°53' W 118°58'510.8
2017-Sep-14 03:55N 30°54' W 118°52'710.9
2017-Sep-14 03:17N 30°55' W 118°44'411.0
2017-Sep-14 02:53N 30°56' W 118°39'410.9
2017-Sep-14 02:30N 30°58' W 118°35'611.0
2017-Sep-14 02:00N 31°01' W 118°29'611.0
2017-Sep-14 01:29N 31°05' W 118°25'510.8
2017-Sep-14 01:00N 31°09' W 118°21'510.7
2017-Sep-14 00:30N 31°14' W 118°17'510.6
2017-Sep-14 00:00N 31°18' W 118°13'510.7
2017-Sep-13 23:30N 31°22' W 118°09'510.9
2017-Sep-13 23:01N 31°26' W 118°05'610.8
2017-Sep-13 22:27N 31°30' W 118°00'510.7
2017-Sep-13 22:00N 31°34' W 117°57'510.8
2017-Sep-13 21:30N 31°38' W 117°53'610.8
2017-Sep-13 20:59N 31°43' W 117°50'5 9.5
2017-Sep-13 20:29N 31°47' W 117°47'3 5.4
2017-Sep-13 20:00N 31°49' W 117°44'510.6
2017-Sep-13 19:30N 31°53' W 117°41'510.4
2017-Sep-13 19:00N 31°58' W 117°39'611.5
2017-Sep-13 18:30N 32°04' W 117°39'611.3
2017-Sep-13 18:00N 32°09' W 117°40'611.2
2017-Sep-13 17:30N 32°15' W 117°40'611.0
2017-Sep-13 17:00N 32°21' W 117°40'511.0
2017-Sep-13 16:30N 32°26' W 117°39'611.1
2017-Sep-13 16:00N 32°32' W 117°40'611.2
2017-Sep-13 15:31N 32°37' W 117°41'611.5
2017-Sep-13 15:01N 32°42' W 117°44'611.4
2017-Sep-13 14:31N 32°47' W 117°47'611.1
2017-Sep-13 14:00N 32°52' W 117°50'511.0
2017-Sep-13 13:30N 32°58' W 117°51'611.0
2017-Sep-13 13:00N 33°03' W 117°52'511.0
2017-Sep-13 12:31N 33°08' W 117°54'510.8
2017-Sep-13 12:00N 33°13' W 117°58'511.0
2017-Sep-13 11:30N 33°16' W 118°03'510.6
2017-Sep-13 11:00N 33°20' W 118°07'611.1
2017-Sep-13 10:30N 33°26' W 118°09'611.4
2017-Sep-13 10:00N 33°31' W 118°11'510.8
2017-Sep-13 09:31N 33°36' W 118°13'510.1
2017-Sep-13 09:00N 33°41' W 118°12'3 5.9
2017-Sep-13 08:30N 33°44' W 118°12'1 1.7
2017-Sep-13 07:55N 33°45' W 118°12'0 0.0
2017-Sep-13 07:26N 33°45' W 118°12'0 0.0
2017-Sep-13 06:55N 33°45' W 118°12'0 0.0
2017-Sep-13 06:19N 33°45' W 118°12'0 0.0
2017-Sep-13 05:58N 33°45' W 118°12'0 0.0
2017-Sep-13 05:28N 33°45' W 118°12'0 0.0
2017-Sep-13 04:59N 33°45' W 118°12'0 0.0
2017-Sep-13 04:25N 33°45' W 118°12'0 0.0
2017-Sep-13 03:55N 33°45' W 118°12'0 0.0
2017-Sep-13 03:25N 33°45' W 118°12'0 0.0
2017-Sep-13 02:58N 33°45' W 118°12'0 0.0
2017-Sep-13 02:29N 33°45' W 118°12'0 0.0
2017-Sep-13 01:58N 33°45' W 118°12'0 0.0
2017-Sep-13 01:28N 33°45' W 118°12'0 0.0
2017-Sep-13 00:58N 33°45' W 118°12'0 0.0
2017-Sep-13 00:28N 33°45' W 118°12'0 0.0
2017-Sep-12 23:59N 33°45' W 118°12'0 0.0
2017-Sep-12 23:29N 33°45' W 118°12'0 0.0
2017-Sep-12 22:58N 33°45' W 118°12'0 0.0
2017-Sep-12 22:28N 33°45' W 118°12'0 0.0
2017-Sep-12 21:55N 33°45' W 118°12'0 0.0
2017-Sep-12 21:25N 33°45' W 118°12'0 0.0
2017-Sep-12 20:55N 33°45' W 118°12'0 0.0
2017-Sep-12 20:25N 33°45' W 118°12'0 0.0
2017-Sep-12 19:37N 33°45' W 118°12'0 0.0
2017-Sep-12 19:25N 33°45' W 118°12'0 0.0
2017-Sep-12 18:55N 33°45' W 118°12'0 0.0
2017-Sep-12 18:25N 33°45' W 118°12'0 0.0
2017-Sep-12 17:58N 33°45' W 118°12'0 0.0
2017-Sep-12 17:26N 33°45' W 118°12'0 0.0
2017-Sep-12 16:55N 33°45' W 118°12'0 0.0
2017-Sep-12 16:29N 33°45' W 118°12'0 0.0
2017-Sep-12 15:55N 33°45' W 118°12'0 0.0
2017-Sep-12 15:14N 33°45' W 118°12'0 0.0
2017-Sep-12 14:58N 33°45' W 118°12'0 0.0
2017-Sep-12 14:25N 33°45' W 118°12'0 0.0
2017-Sep-12 13:53N 33°45' W 118°12'0 0.0
2017-Sep-12 13:28N 33°45' W 118°12'0 0.0
2017-Sep-12 12:58N 33°45' W 118°12'0 0.0
2017-Sep-12 12:19N 33°45' W 118°12'0 0.0
2017-Sep-12 11:58N 33°45' W 118°12'0 0.0
2017-Sep-12 11:23N 33°45' W 118°12'0 0.0
2017-Sep-12 10:58N 33°45' W 118°12'0 0.0
2017-Sep-12 10:28N 33°45' W 118°12'0 0.0
2017-Sep-12 09:58N 33°45' W 118°12'0 0.0
2017-Sep-12 09:28N 33°45' W 118°12'0 0.0
2017-Sep-12 08:58N 33°45' W 118°12'0 0.0
2017-Sep-12 08:28N 33°45' W 118°12'0 0.0
2017-Sep-12 07:55N 33°45' W 118°12'0 0.0
2017-Sep-12 07:28N 33°45' W 118°12'0 0.0
2017-Sep-12 06:55N 33°45' W 118°12'0 0.0
2017-Sep-12 06:28N 33°45' W 118°12'0 0.0
2017-Sep-12 05:59N 33°45' W 118°12'0 0.0
2017-Sep-12 05:28N 33°45' W 118°12'0 0.0
2017-Sep-12 04:58N 33°45' W 118°12'0 0.0
2017-Sep-12 04:28N 33°45' W 118°12'0 0.0
2017-Sep-12 03:58N 33°45' W 118°12'0 0.0
2017-Sep-12 03:28N 33°45' W 118°12'0 0.0
2017-Sep-12 02:59N 33°45' W 118°12'0 0.0
2017-Sep-12 02:28N 33°45' W 118°12'0 0.0
2017-Sep-12 01:59N 33°45' W 118°12'0 0.0
2017-Sep-12 01:28N 33°45' W 118°12'0 0.0
2017-Sep-12 00:52N 33°45' W 118°12'0 0.0
2017-Sep-12 00:28N 33°45' W 118°12'0 0.0
2017-Sep-11 23:58N 33°45' W 118°12'0 0.0
2017-Sep-11 23:29N 33°45' W 118°12'0 0.0
2017-Sep-11 22:59N 33°45' W 118°12'0 0.0
2017-Sep-11 22:29N 33°45' W 118°12'0 0.0
2017-Sep-11 21:59N 33°45' W 118°12'0 0.0
2017-Sep-11 21:28N 33°45' W 118°12'0 0.0
2017-Sep-11 20:58N 33°45' W 118°12'0 0.0
2017-Sep-11 20:29N 33°45' W 118°12'0 0.0
2017-Sep-11 19:58N 33°45' W 118°12'0 0.0
2017-Sep-11 19:28N 33°45' W 118°12'0 0.0
2017-Sep-11 18:58N 33°45' W 118°12'0 0.0
2017-Sep-11 18:29N 33°45' W 118°12'0 0.0
2017-Sep-11 17:59N 33°45' W 118°12'0 0.0
2017-Sep-11 17:19N 33°45' W 118°12'0 0.0
2017-Sep-11 16:37N 33°45' W 118°12'0 0.0
2017-Sep-11 16:29N 33°45' W 118°12'0 0.0
2017-Sep-11 15:55N 33°45' W 118°12'0 0.0
2017-Sep-11 15:28N 33°45' W 118°12'0 0.0
2017-Sep-11 14:56N 33°45' W 118°12'0 0.0
2017-Sep-11 14:26N 33°45' W 118°12'0 0.0
2017-Sep-11 13:55N 33°45' W 118°12'0 0.0
2017-Sep-11 13:19N 33°45' W 118°12'0 0.0
2017-Sep-11 12:58N 33°45' W 118°12'0 0.0
2017-Sep-11 12:28N 33°45' W 118°12'0 0.0
2017-Sep-11 11:55N 33°45' W 118°12'0 0.0
2017-Sep-11 11:28N 33°45' W 118°12'0 0.0
2017-Sep-11 10:59N 33°45' W 118°12'0 0.0
2017-Sep-11 10:11N 33°45' W 118°12'0 0.0
2017-Sep-11 09:55N 33°45' W 118°12'0 0.0
2017-Sep-11 09:20N 33°45' W 118°12'0 0.0
2017-Sep-11 08:53N 33°45' W 118°12'0 0.0
2017-Sep-11 08:28N 33°45' W 118°12'0 0.0
2017-Sep-11 07:58N 33°45' W 118°12'0 0.0
2017-Sep-11 07:28N 33°45' W 118°12'0 0.0
2017-Sep-11 06:59N 33°45' W 118°12'0 0.0
2017-Sep-11 06:29N 33°45' W 118°12'0 0.0
2017-Sep-11 05:58N 33°45' W 118°12'0 0.0
2017-Sep-11 05:29N 33°45' W 118°12'0 0.0
2017-Sep-11 04:59N 33°45' W 118°12'0 0.0
2017-Sep-11 04:26N 33°45' W 118°12'0 0.0
2017-Sep-11 03:58N 33°45' W 118°12'0 0.0
2017-Sep-11 03:28N 33°45' W 118°12'0 0.0
2017-Sep-11 02:58N 33°45' W 118°12'0 0.0
2017-Sep-11 02:28N 33°45' W 118°12'0 0.0
2017-Sep-11 01:58N 33°45' W 118°12'0 0.0
2017-Sep-11 01:28N 33°45' W 118°12'0 0.0
2017-Sep-11 00:52N 33°45' W 118°12'0 0.0
2017-Sep-11 00:25N 33°45' W 118°12'0 0.0
2017-Sep-10 23:58N 33°45' W 118°12'0 0.0
2017-Sep-10 23:29N 33°45' W 118°12'1 1.6
2017-Sep-10 23:01N 33°44' W 118°12'3 5.7
2017-Sep-10 22:30N 33°44' W 118°09'0 0.7
2017-Sep-10 21:59N 33°44' W 118°09'0 0.0
2017-Sep-10 21:29N 33°44' W 118°09'0 0.0
2017-Sep-10 20:53N 33°44' W 118°09'0 0.0
2017-Sep-10 20:29N 33°44' W 118°09'0 0.0
2017-Sep-10 19:59N 33°44' W 118°09'0 0.0
2017-Sep-10 19:29N 33°44' W 118°09'0 0.0
2017-Sep-10 18:53N 33°44' W 118°09'0 0.1
2017-Sep-10 18:29N 33°44' W 118°09'0 0.0
2017-Sep-10 17:59N 33°44' W 118°09'0 0.0
2017-Sep-10 17:29N 33°44' W 118°09'0 0.0
2017-Sep-10 16:59N 33°44' W 118°09'0 0.1
2017-Sep-10 16:29N 33°44' W 118°09'0 0.0
2017-Sep-10 15:59N 33°44' W 118°09'0 0.1
2017-Sep-10 15:23N 33°44' W 118°09'0 0.0
2017-Sep-10 14:59N 33°44' W 118°09'0 0.0
2017-Sep-10 13:59N 33°44' W 118°09'0 0.0
2017-Sep-10 13:29N 33°44' W 118°09'0 0.1
2017-Sep-10 12:59N 33°44' W 118°09'0 0.0
2017-Sep-10 12:29N 33°44' W 118°09'0 0.0
2017-Sep-10 11:59N 33°44' W 118°09'0 0.0
2017-Sep-10 11:29N 33°44' W 118°09'0 0.1
2017-Sep-10 10:59N 33°44' W 118°09'0 0.0
2017-Sep-10 10:29N 33°44' W 118°09'0 0.0
2017-Sep-10 09:59N 33°44' W 118°09'0 0.0
2017-Sep-10 09:29N 33°44' W 118°09'0 0.0
2017-Sep-10 08:59N 33°44' W 118°09'0 0.1
2017-Sep-10 08:29N 33°44' W 118°09'0 0.1
2017-Sep-10 07:59N 33°44' W 118°09'0 0.1
2017-Sep-10 07:29N 33°44' W 118°09'0 0.2
2017-Sep-10 06:59N 33°44' W 118°09'0 0.1
2017-Sep-10 06:29N 33°44' W 118°09'0 0.0
2017-Sep-10 05:59N 33°44' W 118°09'0 0.0
2017-Sep-10 05:29N 33°44' W 118°09'0 0.1
2017-Sep-10 04:59N 33°44' W 118°09'0 0.1
2017-Sep-10 04:29N 33°44' W 118°09'0 0.0
2017-Sep-10 03:59N 33°44' W 118°09'0 0.1
2017-Sep-10 03:29N 33°44' W 118°09'0 0.1
2017-Sep-10 02:59N 33°44' W 118°09'0 0.1
2017-Sep-10 02:29N 33°44' W 118°09'0 0.0
2017-Sep-10 01:59N 33°44' W 118°09'0 0.0
2017-Sep-10 01:29N 33°44' W 118°09'0 0.0
2017-Sep-10 00:59N 33°44' W 118°09'0 0.0
2017-Sep-10 00:29N 33°44' W 118°09'0 0.0
2017-Sep-09 23:59N 33°44' W 118°09'0 0.0
2017-Sep-09 23:29N 33°44' W 118°09'0 0.0
2017-Sep-09 22:59N 33°44' W 118°09'0 0.0
2017-Sep-09 22:29N 33°44' W 118°09'0 0.0
2017-Sep-09 21:59N 33°44' W 118°09'0 0.0
2017-Sep-09 21:29N 33°44' W 118°09'0 0.1
2017-Sep-09 20:59N 33°44' W 118°09'0 0.1
2017-Sep-09 20:29N 33°44' W 118°09'0 0.0
2017-Sep-09 19:59N 33°44' W 118°09'0 0.1
2017-Sep-09 19:29N 33°44' W 118°09'0 0.0
2017-Sep-09 18:53N 33°44' W 118°09'0 0.0
2017-Sep-09 18:26N 33°44' W 118°09'0 0.1
2017-Sep-09 17:59N 33°44' W 118°09'0 0.1
2017-Sep-09 17:29N 33°44' W 118°09'0 0.1
2017-Sep-09 16:59N 33°44' W 118°09'0 0.1
2017-Sep-09 16:29N 33°44' W 118°09'0 0.0
2017-Sep-09 15:59N 33°44' W 118°09'0 0.0
2017-Sep-09 15:29N 33°44' W 118°09'0 0.0
2017-Sep-09 14:59N 33°44' W 118°09'0 0.0
2017-Sep-09 14:29N 33°44' W 118°09'0 0.1
2017-Sep-09 13:59N 33°44' W 118°09'0 0.0
2017-Sep-09 13:26N 33°44' W 118°09'0 0.0
2017-Sep-09 12:59N 33°44' W 118°09'0 0.0
2017-Sep-09 12:26N 33°44' W 118°09'0 0.0
2017-Sep-09 11:59N 33°44' W 118°09'0 0.0
2017-Sep-09 11:29N 33°44' W 118°09'0 0.0
2017-Sep-09 10:59N 33°44' W 118°09'0 0.0
2017-Sep-09 10:29N 33°44' W 118°09'0 0.0
2017-Sep-09 09:59N 33°44' W 118°09'0 0.0
2017-Sep-09 09:29N 33°44' W 118°09'0 0.0
2017-Sep-09 08:59N 33°44' W 118°09'0 0.0
2017-Sep-09 08:26N 33°44' W 118°09'0 0.1
2017-Sep-09 07:59N 33°44' W 118°09'0 0.1
2017-Sep-09 07:26N 33°44' W 118°09'0 0.1
2017-Sep-09 06:59N 33°44' W 118°09'0 0.0
2017-Sep-09 06:29N 33°44' W 118°09'0 0.0
2017-Sep-09 05:59N 33°44' W 118°09'0 0.0
2017-Sep-09 05:29N 33°44' W 118°09'0 0.0
2017-Sep-09 04:59N 33°44' W 118°09'0 0.0
2017-Sep-09 04:29N 33°44' W 118°09'0 0.0
2017-Sep-09 03:59N 33°44' W 118°09'0 0.0
2017-Sep-09 03:29N 33°44' W 118°09'0 0.0
2017-Sep-09 02:59N 33°44' W 118°09'0 0.0
2017-Sep-09 02:29N 33°44' W 118°09'0 0.0
2017-Sep-09 01:59N 33°44' W 118°09'0 0.0
2017-Sep-09 01:29N 33°44' W 118°09'0 0.0
2017-Sep-09 00:59N 33°44' W 118°09'0 0.0
2017-Sep-09 00:29N 33°44' W 118°09'0 0.0
2017-Sep-08 23:59N 33°44' W 118°09'0 0.0
2017-Sep-08 23:29N 33°44' W 118°09'0 0.0
2017-Sep-08 22:59N 33°44' W 118°09'0 0.0
2017-Sep-08 22:29N 33°44' W 118°09'0 0.1
2017-Sep-08 21:59N 33°44' W 118°09'0 0.0
2017-Sep-08 21:29N 33°44' W 118°09'0 0.0
2017-Sep-08 20:59N 33°44' W 118°09'0 0.0
2017-Sep-08 20:29N 33°44' W 118°09'0 0.1
2017-Sep-08 19:59N 33°44' W 118°09'0 0.0
2017-Sep-08 19:29N 33°44' W 118°09'0 0.1
2017-Sep-08 18:59N 33°44' W 118°09'0 0.0
2017-Sep-08 18:29N 33°44' W 118°09'0 0.0
2017-Sep-08 17:59N 33°44' W 118°09'0 0.0
2017-Sep-08 17:29N 33°44' W 118°09'0 0.0
2017-Sep-08 16:59N 33°44' W 118°09'0 0.1
2017-Sep-08 16:29N 33°44' W 118°09'0 0.1
2017-Sep-08 15:59N 33°44' W 118°09'0 0.0
2017-Sep-08 15:29N 33°44' W 118°09'0 0.1
2017-Sep-08 14:56N 33°44' W 118°09'0 0.0
2017-Sep-08 14:29N 33°44' W 118°09'0 0.0
2017-Sep-08 13:59N 33°44' W 118°09'0 0.0
2017-Sep-08 13:29N 33°44' W 118°09'0 0.0
2017-Sep-08 12:59N 33°44' W 118°09'0 0.0
2017-Sep-08 12:29N 33°44' W 118°09'0 0.0
2017-Sep-08 11:59N 33°44' W 118°09'0 0.0
2017-Sep-08 11:29N 33°44' W 118°09'0 0.0
2017-Sep-08 10:56N 33°44' W 118°09'0 0.0
2017-Sep-08 10:26N 33°44' W 118°09'0 0.0
2017-Sep-08 09:59N 33°44' W 118°09'0 0.0
2017-Sep-08 09:29N 33°44' W 118°09'0 0.0
2017-Sep-08 08:59N 33°44' W 118°09'0 0.0
2017-Sep-08 08:29N 33°44' W 118°09'0 0.0
2017-Sep-08 07:59N 33°44' W 118°09'0 0.0
2017-Sep-08 07:26N 33°44' W 118°09'0 0.0
2017-Sep-08 06:56N 33°44' W 118°09'0 0.0
2017-Sep-08 06:26N 33°44' W 118°09'0 0.0
2017-Sep-08 05:59N 33°44' W 118°09'0 0.0
2017-Sep-08 05:29N 33°44' W 118°09'0 0.0
2017-Sep-08 04:59N 33°44' W 118°09'0 0.0
2017-Sep-08 04:29N 33°44' W 118°09'0 0.1
2017-Sep-08 03:59N 33°44' W 118°09'0 0.0
2017-Sep-08 03:29N 33°44' W 118°09'0 0.1
2017-Sep-08 02:59N 33°44' W 118°09'0 0.0
2017-Sep-08 02:29N 33°44' W 118°09'0 0.0
2017-Sep-08 01:59N 33°44' W 118°09'0 0.0
2017-Sep-08 01:29N 33°44' W 118°09'0 0.0
2017-Sep-08 00:59N 33°44' W 118°09'0 0.0
2017-Sep-08 00:29N 33°44' W 118°09'0 0.0
2017-Sep-07 23:59N 33°44' W 118°09'0 0.0
2017-Sep-07 23:29N 33°44' W 118°09'0 0.0
2017-Sep-07 22:59N 33°44' W 118°09'0 0.0
2017-Sep-07 22:29N 33°44' W 118°09'0 0.0
2017-Sep-07 21:59N 33°44' W 118°09'0 0.0
2017-Sep-07 21:29N 33°44' W 118°09'0 0.0
2017-Sep-07 20:59N 33°44' W 118°09'0 0.0
2017-Sep-07 20:29N 33°44' W 118°09'0 0.0
2017-Sep-07 19:59N 33°44' W 118°09'0 0.0
2017-Sep-07 19:29N 33°44' W 118°09'0 0.1
2017-Sep-07 18:56N 33°44' W 118°09'0 0.0
2017-Sep-07 18:29N 33°44' W 118°09'0 0.1
2017-Sep-07 17:59N 33°44' W 118°09'0 0.1
2017-Sep-07 17:29N 33°44' W 118°09'0 0.0
2017-Sep-07 16:59N 33°44' W 118°09'0 0.0
2017-Sep-07 16:29N 33°44' W 118°09'0 0.0
2017-Sep-07 15:59N 33°44' W 118°09'0 0.1
2017-Sep-07 15:29N 33°44' W 118°09'0 0.1
2017-Sep-07 14:59N 33°44' W 118°09'0 0.1
2017-Sep-07 14:26N 33°44' W 118°09'0 0.0
2017-Sep-07 13:59N 33°44' W 118°09'0 0.1
2017-Sep-07 13:29N 33°44' W 118°09'0 0.0
2017-Sep-07 12:59N 33°44' W 118°09'0 0.0
2017-Sep-07 12:29N 33°44' W 118°09'0 0.0
2017-Sep-07 11:56N 33°44' W 118°09'0 0.0
2017-Sep-07 11:29N 33°44' W 118°09'0 0.0
2017-Sep-07 10:56N 33°44' W 118°09'0 0.0
2017-Sep-07 10:26N 33°44' W 118°09'0 0.0
2017-Sep-07 09:59N 33°44' W 118°09'0 0.0
2017-Sep-07 09:29N 33°44' W 118°09'0 0.0
2017-Sep-07 08:59N 33°44' W 118°09'0 0.0
2017-Sep-07 08:29N 33°44' W 118°09'0 0.0
2017-Sep-07 07:59N 33°44' W 118°09'0 0.0
2017-Sep-07 07:29N 33°44' W 118°09'0 0.0
2017-Sep-07 06:59N 33°44' W 118°09'0 0.0
2017-Sep-07 06:29N 33°44' W 118°09'0 0.1
2017-Sep-07 05:59N 33°44' W 118°09'0 0.0
2017-Sep-07 05:23N 33°44' W 118°09'0 0.1
2017-Sep-07 04:59N 33°44' W 118°09'0 0.1
2017-Sep-07 04:29N 33°44' W 118°09'0 0.1
2017-Sep-07 03:59N 33°44' W 118°09'0 0.1
2017-Sep-07 03:29N 33°44' W 118°09'0 0.1
2017-Sep-07 02:59N 33°44' W 118°09'0 0.0
2017-Sep-07 02:29N 33°44' W 118°09'0 0.0
2017-Sep-07 01:59N 33°44' W 118°09'0 0.0
2017-Sep-07 01:29N 33°44' W 118°09'0 0.0
2017-Sep-07 00:59N 33°44' W 118°09'0 0.0
2017-Sep-07 00:29N 33°44' W 118°09'0 0.0
2017-Sep-06 23:59N 33°44' W 118°09'0 0.0
2017-Sep-06 23:29N 33°44' W 118°09'0 0.0
2017-Sep-06 22:59N 33°44' W 118°09'0 0.0
2017-Sep-06 22:29N 33°44' W 118°09'0 0.0
2017-Sep-06 21:56N 33°44' W 118°09'0 0.0
2017-Sep-06 21:29N 33°44' W 118°09'0 0.0
2017-Sep-06 20:59N 33°44' W 118°09'0 0.0
2017-Sep-06 20:29N 33°44' W 118°09'0 0.0
2017-Sep-06 19:59N 33°44' W 118°09'0 0.0
2017-Sep-06 19:29N 33°44' W 118°09'0 0.0
2017-Sep-06 18:59N 33°44' W 118°09'0 0.0
2017-Sep-06 18:29N 33°44' W 118°09'0 0.1
2017-Sep-06 17:59N 33°44' W 118°09'0 0.0
2017-Sep-06 17:29N 33°44' W 118°09'0 0.0
2017-Sep-06 16:59N 33°44' W 118°09'0 0.1
2017-Sep-06 16:26N 33°44' W 118°09'0 0.1
2017-Sep-06 15:59N 33°44' W 118°09'0 0.1
2017-Sep-06 15:29N 33°44' W 118°09'0 0.1
2017-Sep-06 14:59N 33°44' W 118°09'0 0.1
2017-Sep-06 14:29N 33°44' W 118°09'0 0.0
2017-Sep-06 13:59N 33°44' W 118°09'0 0.1
2017-Sep-06 13:29N 33°44' W 118°09'0 0.1
2017-Sep-06 12:59N 33°44' W 118°09'0 0.0
2017-Sep-06 12:29N 33°44' W 118°09'0 0.0
2017-Sep-06 11:59N 33°44' W 118°09'0 0.1
2017-Sep-06 11:26N 33°44' W 118°09'0 0.1
2017-Sep-06 10:59N 33°44' W 118°09'0 0.1
2017-Sep-06 10:29N 33°44' W 118°09'0 0.0
2017-Sep-06 09:59N 33°44' W 118°09'0 0.1
2017-Sep-06 09:29N 33°44' W 118°09'0 0.1
2017-Sep-06 08:59N 33°44' W 118°09'0 0.1
2017-Sep-06 08:29N 33°44' W 118°09'0 0.0
2017-Sep-06 07:59N 33°44' W 118°09'0 0.1
2017-Sep-06 07:29N 33°44' W 118°09'0 0.1
2017-Sep-06 06:59N 33°44' W 118°09'0 0.1
2017-Sep-06 06:29N 33°44' W 118°09'0 0.0
2017-Sep-06 05:59N 33°44' W 118°09'0 0.0
2017-Sep-06 05:29N 33°44' W 118°09'0 0.0
2017-Sep-06 04:59N 33°44' W 118°09'0 0.0
2017-Sep-06 04:29N 33°44' W 118°09'0 0.1
2017-Sep-06 03:56N 33°44' W 118°09'0 0.0
2017-Sep-06 03:29N 33°44' W 118°09'0 0.1
2017-Sep-06 02:59N 33°44' W 118°09'0 0.0
2017-Sep-06 02:29N 33°44' W 118°09'0 0.2
2017-Sep-06 01:59N 33°44' W 118°09'0 0.2
2017-Sep-06 01:29N 33°44' W 118°09'0 0.0
2017-Sep-06 00:59N 33°44' W 118°09'0 0.0
2017-Sep-06 00:29N 33°44' W 118°09'0 0.0
2017-Sep-05 23:59N 33°44' W 118°09'0 0.0
2017-Sep-05 23:29N 33°44' W 118°09'0 0.0
2017-Sep-05 22:59N 33°44' W 118°09'0 0.0
2017-Sep-05 22:29N 33°44' W 118°09'0 0.0
2017-Sep-05 21:59N 33°44' W 118°09'0 0.0
2017-Sep-05 21:29N 33°44' W 118°09'0 0.0
2017-Sep-05 20:59N 33°44' W 118°09'0 0.0
2017-Sep-05 20:29N 33°44' W 118°09'0 0.0
2017-Sep-05 19:59N 33°44' W 118°09'0 0.0
2017-Sep-05 19:29N 33°44' W 118°09'0 0.0
2017-Sep-05 18:59N 33°44' W 118°09'0 0.1
2017-Sep-05 18:29N 33°44' W 118°09'0 0.0
2017-Sep-05 17:59N 33°44' W 118°09'0 0.1
2017-Sep-05 17:29N 33°44' W 118°09'0 0.1
2017-Sep-05 16:59N 33°44' W 118°09'0 0.0
2017-Sep-05 16:29N 33°44' W 118°09'0 0.0
2017-Sep-05 15:59N 33°44' W 118°09'0 0.1
2017-Sep-05 15:26N 33°44' W 118°09'0 0.2
2017-Sep-05 14:59N 33°44' W 118°09'0 0.1
2017-Sep-05 14:29N 33°44' W 118°09'0 0.0
2017-Sep-05 13:56N 33°44' W 118°09'0 0.1
2017-Sep-05 13:29N 33°44' W 118°09'  
Track history (hours):
 
Tides and Currents Weather Stations Pressure Air Temp Water Temp Dewpoint Dewpoint Depression Visibility Wind Speed Wind Dir Waves Ship Positions

Iris Halo

Last reported at 2017-Sep-15 13:23 UTC. Time now 2017-Sep-20 21:52 UTC.
Position N 32°10' W 125°17'.

Length 190 m; draft 10.9 m.

Type: Cargo ship. MMSI: 371281000.

Date/timePositionNaut miles runAvg speedWind from/ knotsBaromVisibWave heightAir tempDewpointWater temp
2017-Sep-15 13:23N 32°10' W 125°17'411.0
2017-Sep-15 13:00N 32°07' W 125°13'611.0
2017-Sep-15 12:29N 32°04' W 125°07'2011.0
2017-Sep-15 10:39N 31°54' W 124°47'211.2
2017-Sep-15 10:30N 31°53' W 124°45'1211.3
2017-Sep-15 09:24N 31°47' W 124°33'511.2
2017-Sep-15 08:57N 31°44' W 124°27'511.1
2017-Sep-15 08:30N 31°42' W 124°23'611.2
2017-Sep-15 08:00N 31°39' W 124°17'1111.2
2017-Sep-15 07:00N 31°33' W 124°06'611.0
2017-Sep-15 06:27N 31°30' W 123°60'511.0
2017-Sep-15 06:00N 31°27' W 123°55'610.9
2017-Sep-15 05:30N 31°24' W 123°50'510.7
2017-Sep-15 05:00N 31°21' W 123°44'510.7
2017-Sep-15 04:30N 31°18' W 123°39'610.7
2017-Sep-15 03:57N 31°15' W 123°33'510.6
2017-Sep-15 03:30N 31°12' W 123°29'510.7
2017-Sep-15 03:00N 31°09' W 123°23'610.7
2017-Sep-15 02:29N 31°07' W 123°18'510.6
2017-Sep-15 02:00N 31°04' W 123°13'510.8
2017-Sep-15 01:30N 31°01' W 123°07'510.6
2017-Sep-15 01:00N 30°59' W 123°02'510.7
2017-Sep-15 00:30N 30°56' W 122°56'20110.2
2017-Sep-14 04:46N 30°52' W 119°03'410.9
2017-Sep-14 04:23N 30°53' W 118°58'510.8
2017-Sep-14 03:55N 30°54' W 118°52'710.9
2017-Sep-14 03:17N 30°55' W 118°44'411.0
2017-Sep-14 02:53N 30°56' W 118°39'410.9
2017-Sep-14 02:30N 30°58' W 118°35'611.0
2017-Sep-14 02:00N 31°01' W 118°29'611.0
2017-Sep-14 01:29N 31°05' W 118°25'510.8
2017-Sep-14 01:00N 31°09' W 118°21'510.7
2017-Sep-14 00:30N 31°14' W 118°17'510.6
2017-Sep-14 00:00N 31°18' W 118°13'510.7
2017-Sep-13 23:30N 31°22' W 118°09'510.9
2017-Sep-13 23:01N 31°26' W 118°05'610.8
2017-Sep-13 22:27N 31°30' W 118°00'510.7
2017-Sep-13 22:00N 31°34' W 117°57'510.8
2017-Sep-13 21:30N 31°38' W 117°53'610.8
2017-Sep-13 20:59N 31°43' W 117°50'5 9.5
2017-Sep-13 20:29N 31°47' W 117°47'3 5.4
2017-Sep-13 20:00N 31°49' W 117°44'510.6
2017-Sep-13 19:30N 31°53' W 117°41'510.4
2017-Sep-13 19:00N 31°58' W 117°39'611.5
2017-Sep-13 18:30N 32°04' W 117°39'611.3
2017-Sep-13 18:00N 32°09' W 117°40'611.2
2017-Sep-13 17:30N 32°15' W 117°40'611.0
2017-Sep-13 17:00N 32°21' W 117°40'511.0
2017-Sep-13 16:30N 32°26' W 117°39'611.1
2017-Sep-13 16:00N 32°32' W 117°40'611.2
2017-Sep-13 15:31N 32°37' W 117°41'611.5
2017-Sep-13 15:01N 32°42' W 117°44'611.4
2017-Sep-13 14:31N 32°47' W 117°47'611.1
2017-Sep-13 14:00N 32°52' W 117°50'511.0
2017-Sep-13 13:30N 32°58' W 117°51'611.0
2017-Sep-13 13:00N 33°03' W 117°52'511.0
2017-Sep-13 12:31N 33°08' W 117°54'510.8
2017-Sep-13 12:00N 33°13' W 117°58'511.0
2017-Sep-13 11:30N 33°16' W 118°03'510.6
2017-Sep-13 11:00N 33°20' W 118°07'611.1
2017-Sep-13 10:30N 33°26' W 118°09'611.4
2017-Sep-13 10:00N 33°31' W 118°11'510.8
2017-Sep-13 09:31N 33°36' W 118°13'510.1
2017-Sep-13 09:00N 33°41' W 118°12'3 5.9
2017-Sep-13 08:30N 33°44' W 118°12'1 1.7
2017-Sep-13 07:55N 33°45' W 118°12'0 0.0
2017-Sep-13 07:26N 33°45' W 118°12'0 0.0
2017-Sep-13 06:55N 33°45' W 118°12'0 0.0
2017-Sep-13 06:19N 33°45' W 118°12'0 0.0
2017-Sep-13 05:58N 33°45' W 118°12'0 0.0
2017-Sep-13 05:28N 33°45' W 118°12'0 0.0
2017-Sep-13 04:59N 33°45' W 118°12'0 0.0
2017-Sep-13 04:25N 33°45' W 118°12'0 0.0
2017-Sep-13 03:55N 33°45' W 118°12'0 0.0
2017-Sep-13 03:25N 33°45' W 118°12'0 0.0
2017-Sep-13 02:58N 33°45' W 118°12'0 0.0
2017-Sep-13 02:29N 33°45' W 118°12'0 0.0
2017-Sep-13 01:58N 33°45' W 118°12'0 0.0
2017-Sep-13 01:28N 33°45' W 118°12'0 0.0
2017-Sep-13 00:58N 33°45' W 118°12'0 0.0
2017-Sep-13 00:28N 33°45' W 118°12'0 0.0
2017-Sep-12 23:59N 33°45' W 118°12'0 0.0
2017-Sep-12 23:29N 33°45' W 118°12'0 0.0
2017-Sep-12 22:58N 33°45' W 118°12'0 0.0
2017-Sep-12 22:28N 33°45' W 118°12'0 0.0
2017-Sep-12 21:55N 33°45' W 118°12'0 0.0
2017-Sep-12 21:25N 33°45' W 118°12'0 0.0
2017-Sep-12 20:55N 33°45' W 118°12'0 0.0
2017-Sep-12 20:25N 33°45' W 118°12'0 0.0
2017-Sep-12 19:37N 33°45' W 118°12'0 0.0
2017-Sep-12 19:25N 33°45' W 118°12'0 0.0
2017-Sep-12 18:55N 33°45' W 118°12'0 0.0
2017-Sep-12 18:25N 33°45' W 118°12'0 0.0
2017-Sep-12 17:58N 33°45' W 118°12'0 0.0
2017-Sep-12 17:26N 33°45' W 118°12'0 0.0
2017-Sep-12 16:55N 33°45' W 118°12'0 0.0
2017-Sep-12 16:29N 33°45' W 118°12'0 0.0
2017-Sep-12 15:55N 33°45' W 118°12'0 0.0
2017-Sep-12 15:14N 33°45' W 118°12'0 0.0
2017-Sep-12 14:58N 33°45' W 118°12'0 0.0
2017-Sep-12 14:25N 33°45' W 118°12'0 0.0
2017-Sep-12 13:53N 33°45' W 118°12'0 0.0
2017-Sep-12 13:28N 33°45' W 118°12'0 0.0
2017-Sep-12 12:58N 33°45' W 118°12'0 0.0
2017-Sep-12 12:19N 33°45' W 118°12'0 0.0
2017-Sep-12 11:58N 33°45' W 118°12'0 0.0
2017-Sep-12 11:23N 33°45' W 118°12'0 0.0
2017-Sep-12 10:58N 33°45' W 118°12'0 0.0
2017-Sep-12 10:28N 33°45' W 118°12'0 0.0
2017-Sep-12 09:58N 33°45' W 118°12'0 0.0
2017-Sep-12 09:28N 33°45' W 118°12'0 0.0
2017-Sep-12 08:58N 33°45' W 118°12'0 0.0
2017-Sep-12 08:28N 33°45' W 118°12'0 0.0
2017-Sep-12 07:55N 33°45' W 118°12'0 0.0
2017-Sep-12 07:28N 33°45' W 118°12'0 0.0
2017-Sep-12 06:55N 33°45' W 118°12'0 0.0
2017-Sep-12 06:28N 33°45' W 118°12'0 0.0
2017-Sep-12 05:59N 33°45' W 118°12'0 0.0
2017-Sep-12 05:28N 33°45' W 118°12'0 0.0
2017-Sep-12 04:58N 33°45' W 118°12'0 0.0
2017-Sep-12 04:28N 33°45' W 118°12'0 0.0
2017-Sep-12 03:58N 33°45' W 118°12'0 0.0
2017-Sep-12 03:28N 33°45' W 118°12'0 0.0
2017-Sep-12 02:59N 33°45' W 118°12'0 0.0
2017-Sep-12 02:28N 33°45' W 118°12'0 0.0
2017-Sep-12 01:59N 33°45' W 118°12'0 0.0
2017-Sep-12 01:28N 33°45' W 118°12'0 0.0
2017-Sep-12 00:52N 33°45' W 118°12'0 0.0
2017-Sep-12 00:28N 33°45' W 118°12'0 0.0
2017-Sep-11 23:58N 33°45' W 118°12'0 0.0
2017-Sep-11 23:29N 33°45' W 118°12'0 0.0
2017-Sep-11 22:59N 33°45' W 118°12'0 0.0
2017-Sep-11 22:29N 33°45' W 118°12'0 0.0
2017-Sep-11 21:59N 33°45' W 118°12'0 0.0
2017-Sep-11 21:28N 33°45' W 118°12'0 0.0
2017-Sep-11 20:58N 33°45' W 118°12'0 0.0
2017-Sep-11 20:29N 33°45' W 118°12'0 0.0
2017-Sep-11 19:58N 33°45' W 118°12'0 0.0
2017-Sep-11 19:28N 33°45' W 118°12'0 0.0
2017-Sep-11 18:58N 33°45' W 118°12'0 0.0
2017-Sep-11 18:29N 33°45' W 118°12'0 0.0
2017-Sep-11 17:59N 33°45' W 118°12'0 0.0
2017-Sep-11 17:19N 33°45' W 118°12'0 0.0
2017-Sep-11 16:37N 33°45' W 118°12'0 0.0
2017-Sep-11 16:29N 33°45' W 118°12'0 0.0
2017-Sep-11 15:55N 33°45' W 118°12'0 0.0
2017-Sep-11 15:28N 33°45' W 118°12'0 0.0
2017-Sep-11 14:56N 33°45' W 118°12'0 0.0
2017-Sep-11 14:26N 33°45' W 118°12'0 0.0
2017-Sep-11 13:55N 33°45' W 118°12'0 0.0
2017-Sep-11 13:19N 33°45' W 118°12'0 0.0
2017-Sep-11 12:58N 33°45' W 118°12'0 0.0
2017-Sep-11 12:28N 33°45' W 118°12'0 0.0
2017-Sep-11 11:55N 33°45' W 118°12'0 0.0
2017-Sep-11 11:28N 33°45' W 118°12'0 0.0
2017-Sep-11 10:59N 33°45' W 118°12'0 0.0
2017-Sep-11 10:11N 33°45' W 118°12'0 0.0
2017-Sep-11 09:55N 33°45' W 118°12'0 0.0
2017-Sep-11 09:20N 33°45' W 118°12'0 0.0
2017-Sep-11 08:53N 33°45' W 118°12'0 0.0
2017-Sep-11 08:28N 33°45' W 118°12'0 0.0
2017-Sep-11 07:58N 33°45' W 118°12'0 0.0
2017-Sep-11 07:28N 33°45' W 118°12'0 0.0
2017-Sep-11 06:59N 33°45' W 118°12'0 0.0
2017-Sep-11 06:29N 33°45' W 118°12'0 0.0
2017-Sep-11 05:58N 33°45' W 118°12'0 0.0
2017-Sep-11 05:29N 33°45' W 118°12'0 0.0
2017-Sep-11 04:59N 33°45' W 118°12'0 0.0
2017-Sep-11 04:26N 33°45' W 118°12'0 0.0
2017-Sep-11 03:58N 33°45' W 118°12'0 0.0
2017-Sep-11 03:28N 33°45' W 118°12'0 0.0
2017-Sep-11 02:58N 33°45' W 118°12'0 0.0
2017-Sep-11 02:28N 33°45' W 118°12'0 0.0
2017-Sep-11 01:58N 33°45' W 118°12'0 0.0
2017-Sep-11 01:28N 33°45' W 118°12'0 0.0
2017-Sep-11 00:52N 33°45' W 118°12'0 0.0
2017-Sep-11 00:25N 33°45' W 118°12'0 0.0
2017-Sep-10 23:58N 33°45' W 118°12'0 0.0
2017-Sep-10 23:29N 33°45' W 118°12'1 1.6
2017-Sep-10 23:01N 33°44' W 118°12'3 5.7
2017-Sep-10 22:30N 33°44' W 118°09'0 0.7
2017-Sep-10 21:59N 33°44' W 118°09'0 0.0
2017-Sep-10 21:29N 33°44' W 118°09'0 0.0
2017-Sep-10 20:53N 33°44' W 118°09'0 0.0
2017-Sep-10 20:29N 33°44' W 118°09'0 0.0
2017-Sep-10 19:59N 33°44' W 118°09'0 0.0
2017-Sep-10 19:29N 33°44' W 118°09'0 0.0
2017-Sep-10 18:53N 33°44' W 118°09'0 0.1
2017-Sep-10 18:29N 33°44' W 118°09'0 0.0
2017-Sep-10 17:59N 33°44' W 118°09'0 0.0
2017-Sep-10 17:29N 33°44' W 118°09'0 0.0
2017-Sep-10 16:59N 33°44' W 118°09'0 0.1
2017-Sep-10 16:29N 33°44' W 118°09'0 0.0
2017-Sep-10 15:59N 33°44' W 118°09'0 0.1
2017-Sep-10 15:23N 33°44' W 118°09'0 0.0
2017-Sep-10 14:59N 33°44' W 118°09'0 0.0
2017-Sep-10 13:59N 33°44' W 118°09'0 0.0
2017-Sep-10 13:29N 33°44' W 118°09'0 0.1
2017-Sep-10 12:59N 33°44' W 118°09'0 0.0
2017-Sep-10 12:29N 33°44' W 118°09'0 0.0
2017-Sep-10 11:59N 33°44' W 118°09'0 0.0
2017-Sep-10 11:29N 33°44' W 118°09'0 0.1
2017-Sep-10 10:59N 33°44' W 118°09'0 0.0
2017-Sep-10 10:29N 33°44' W 118°09'0 0.0
2017-Sep-10 09:59N 33°44' W 118°09'0 0.0
2017-Sep-10 09:29N 33°44' W 118°09'0 0.0
2017-Sep-10 08:59N 33°44' W 118°09'0 0.1
2017-Sep-10 08:29N 33°44' W 118°09'0 0.1
2017-Sep-10 07:59N 33°44' W 118°09'0 0.1
2017-Sep-10 07:29N 33°44' W 118°09'0 0.2
2017-Sep-10 06:59N 33°44' W 118°09'0 0.1
2017-Sep-10 06:29N 33°44' W 118°09'0 0.0
2017-Sep-10 05:59N 33°44' W 118°09'0 0.0
2017-Sep-10 05:29N 33°44' W 118°09'0 0.1
2017-Sep-10 04:59N 33°44' W 118°09'0 0.1
2017-Sep-10 04:29N 33°44' W 118°09'0 0.0
2017-Sep-10 03:59N 33°44' W 118°09'0 0.1
2017-Sep-10 03:29N 33°44' W 118°09'0 0.1
2017-Sep-10 02:59N 33°44' W 118°09'0 0.1
2017-Sep-10 02:29N 33°44' W 118°09'0 0.0
2017-Sep-10 01:59N 33°44' W 118°09'0 0.0
2017-Sep-10 01:29N 33°44' W 118°09'0 0.0
2017-Sep-10 00:59N 33°44' W 118°09'0 0.0
2017-Sep-10 00:29N 33°44' W 118°09'0 0.0
2017-Sep-09 23:59N 33°44' W 118°09'0 0.0
2017-Sep-09 23:29N 33°44' W 118°09'0 0.0
2017-Sep-09 22:59N 33°44' W 118°09'0 0.0
2017-Sep-09 22:29N 33°44' W 118°09'0 0.0
2017-Sep-09 21:59N 33°44' W 118°09'0 0.0
2017-Sep-09 21:29N 33°44' W 118°09'0 0.1
2017-Sep-09 20:59N 33°44' W 118°09'0 0.1
2017-Sep-09 20:29N 33°44' W 118°09'0 0.0
2017-Sep-09 19:59N 33°44' W 118°09'0 0.1
2017-Sep-09 19:29N 33°44' W 118°09'0 0.0
2017-Sep-09 18:53N 33°44' W 118°09'0 0.0
2017-Sep-09 18:26N 33°44' W 118°09'0 0.1
2017-Sep-09 17:59N 33°44' W 118°09'0 0.1
2017-Sep-09 17:29N 33°44' W 118°09'0 0.1
2017-Sep-09 16:59N 33°44' W 118°09'0 0.1
2017-Sep-09 16:29N 33°44' W 118°09'0 0.0
2017-Sep-09 15:59N 33°44' W 118°09'0 0.0
2017-Sep-09 15:29N 33°44' W 118°09'0 0.0
2017-Sep-09 14:59N 33°44' W 118°09'0 0.0
2017-Sep-09 14:29N 33°44' W 118°09'0 0.1
2017-Sep-09 13:59N 33°44' W 118°09'0 0.0
2017-Sep-09 13:26N 33°44' W 118°09'0 0.0
2017-Sep-09 12:59N 33°44' W 118°09'0 0.0
2017-Sep-09 12:26N 33°44' W 118°09'0 0.0
2017-Sep-09 11:59N 33°44' W 118°09'0 0.0
2017-Sep-09 11:29N 33°44' W 118°09'0 0.0
2017-Sep-09 10:59N 33°44' W 118°09'0 0.0
2017-Sep-09 10:29N 33°44' W 118°09'0 0.0
2017-Sep-09 09:59N 33°44' W 118°09'0 0.0
2017-Sep-09 09:29N 33°44' W 118°09'0 0.0
2017-Sep-09 08:59N 33°44' W 118°09'0 0.0
2017-Sep-09 08:26N 33°44' W 118°09'0 0.1
2017-Sep-09 07:59N 33°44' W 118°09'0 0.1
2017-Sep-09 07:26N 33°44' W 118°09'0 0.1
2017-Sep-09 06:59N 33°44' W 118°09'0 0.0
2017-Sep-09 06:29N 33°44' W 118°09'0 0.0
2017-Sep-09 05:59N 33°44' W 118°09'0 0.0
2017-Sep-09 05:29N 33°44' W 118°09'0 0.0
2017-Sep-09 04:59N 33°44' W 118°09'0 0.0
2017-Sep-09 04:29N 33°44' W 118°09'0 0.0
2017-Sep-09 03:59N 33°44' W 118°09'0 0.0
2017-Sep-09 03:29N 33°44' W 118°09'0 0.0
2017-Sep-09 02:59N 33°44' W 118°09'0 0.0
2017-Sep-09 02:29N 33°44' W 118°09'0 0.0
2017-Sep-09 01:59N 33°44' W 118°09'0 0.0
2017-Sep-09 01:29N 33°44' W 118°09'0 0.0
2017-Sep-09 00:59N 33°44' W 118°09'0 0.0
2017-Sep-09 00:29N 33°44' W 118°09'0 0.0
2017-Sep-08 23:59N 33°44' W 118°09'0 0.0
2017-Sep-08 23:29N 33°44' W 118°09'0 0.0
2017-Sep-08 22:59N 33°44' W 118°09'0 0.0
2017-Sep-08 22:29N 33°44' W 118°09'0 0.1
2017-Sep-08 21:59N 33°44' W 118°09'0 0.0
2017-Sep-08 21:29N 33°44' W 118°09'0 0.0
2017-Sep-08 20:59N 33°44' W 118°09'0 0.0
2017-Sep-08 20:29N 33°44' W 118°09'0 0.1
2017-Sep-08 19:59N 33°44' W 118°09'0 0.0
2017-Sep-08 19:29N 33°44' W 118°09'0 0.1
2017-Sep-08 18:59N 33°44' W 118°09'0 0.0
2017-Sep-08 18:29N 33°44' W 118°09'0 0.0
2017-Sep-08 17:59N 33°44' W 118°09'0 0.0
2017-Sep-08 17:29N 33°44' W 118°09'0 0.0
2017-Sep-08 16:59N 33°44' W 118°09'0 0.1
2017-Sep-08 16:29N 33°44' W 118°09'0 0.1
2017-Sep-08 15:59N 33°44' W 118°09'0 0.0
2017-Sep-08 15:29N 33°44' W 118°09'0 0.1
2017-Sep-08 14:56N 33°44' W 118°09'0 0.0
2017-Sep-08 14:29N 33°44' W 118°09'0 0.0
2017-Sep-08 13:59N 33°44' W 118°09'0 0.0
2017-Sep-08 13:29N 33°44' W 118°09'0 0.0
2017-Sep-08 12:59N 33°44' W 118°09'0 0.0
2017-Sep-08 12:29N 33°44' W 118°09'0 0.0
2017-Sep-08 11:59N 33°44' W 118°09'0 0.0
2017-Sep-08 11:29N 33°44' W 118°09'0 0.0
2017-Sep-08 10:56N 33°44' W 118°09'0 0.0
2017-Sep-08 10:26N 33°44' W 118°09'0 0.0
2017-Sep-08 09:59N 33°44' W 118°09'0 0.0
2017-Sep-08 09:29N 33°44' W 118°09'0 0.0
2017-Sep-08 08:59N 33°44' W 118°09'0 0.0
2017-Sep-08 08:29N 33°44' W 118°09'0 0.0
2017-Sep-08 07:59N 33°44' W 118°09'0 0.0
2017-Sep-08 07:26N 33°44' W 118°09'0 0.0
2017-Sep-08 06:56N 33°44' W 118°09'0 0.0
2017-Sep-08 06:26N 33°44' W 118°09'0 0.0
2017-Sep-08 05:59N 33°44' W 118°09'0 0.0
2017-Sep-08 05:29N 33°44' W 118°09'0 0.0
2017-Sep-08 04:59N 33°44' W 118°09'0 0.0
2017-Sep-08 04:29N 33°44' W 118°09'0 0.1
2017-Sep-08 03:59N 33°44' W 118°09'0 0.0
2017-Sep-08 03:29N 33°44' W 118°09'0 0.1
2017-Sep-08 02:59N 33°44' W 118°09'0 0.0
2017-Sep-08 02:29N 33°44' W 118°09'0 0.0
2017-Sep-08 01:59N 33°44' W 118°09'0 0.0
2017-Sep-08 01:29N 33°44' W 118°09'0 0.0
2017-Sep-08 00:59N 33°44' W 118°09'0 0.0
2017-Sep-08 00:29N 33°44' W 118°09'0 0.0
2017-Sep-07 23:59N 33°44' W 118°09'0 0.0
2017-Sep-07 23:29N 33°44' W 118°09'0 0.0
2017-Sep-07 22:59N 33°44' W 118°09'0 0.0
2017-Sep-07 22:29N 33°44' W 118°09'0 0.0
2017-Sep-07 21:59N 33°44' W 118°09'0 0.0
2017-Sep-07 21:29N 33°44' W 118°09'0 0.0
2017-Sep-07 20:59N 33°44' W 118°09'0 0.0
2017-Sep-07 20:29N 33°44' W 118°09'0 0.0
2017-Sep-07 19:59N 33°44' W 118°09'0 0.0
2017-Sep-07 19:29N 33°44' W 118°09'0 0.1
2017-Sep-07 18:56N 33°44' W 118°09'0 0.0
2017-Sep-07 18:29N 33°44' W 118°09'0 0.1
2017-Sep-07 17:59N 33°44' W 118°09'0 0.1
2017-Sep-07 17:29N 33°44' W 118°09'0 0.0
2017-Sep-07 16:59N 33°44' W 118°09'0 0.0
2017-Sep-07 16:29N 33°44' W 118°09'0 0.0
2017-Sep-07 15:59N 33°44' W 118°09'0 0.1
2017-Sep-07 15:29N 33°44' W 118°09'0 0.1
2017-Sep-07 14:59N 33°44' W 118°09'0 0.1
2017-Sep-07 14:26N 33°44' W 118°09'0 0.0
2017-Sep-07 13:59N 33°44' W 118°09'0 0.1
2017-Sep-07 13:29N 33°44' W 118°09'0 0.0
2017-Sep-07 12:59N 33°44' W 118°09'0 0.0
2017-Sep-07 12:29N 33°44' W 118°09'0 0.0
2017-Sep-07 11:56N 33°44' W 118°09'0 0.0
2017-Sep-07 11:29N 33°44' W 118°09'0 0.0
2017-Sep-07 10:56N 33°44' W 118°09'0 0.0
2017-Sep-07 10:26N 33°44' W 118°09'0 0.0
2017-Sep-07 09:59N 33°44' W 118°09'0 0.0
2017-Sep-07 09:29N 33°44' W 118°09'0 0.0
2017-Sep-07 08:59N 33°44' W 118°09'0 0.0
2017-Sep-07 08:29N 33°44' W 118°09'0 0.0
2017-Sep-07 07:59N 33°44' W 118°09'0 0.0
2017-Sep-07 07:29N 33°44' W 118°09'0 0.0
2017-Sep-07 06:59N 33°44' W 118°09'0 0.0
2017-Sep-07 06:29N 33°44' W 118°09'0 0.1
2017-Sep-07 05:59N 33°44' W 118°09'0 0.0
2017-Sep-07 05:23N 33°44' W 118°09'0 0.1
2017-Sep-07 04:59N 33°44' W 118°09'0 0.1
2017-Sep-07 04:29N 33°44' W 118°09'0 0.1
2017-Sep-07 03:59N 33°44' W 118°09'0 0.1
2017-Sep-07 03:29N 33°44' W 118°09'0 0.1
2017-Sep-07 02:59N 33°44' W 118°09'0 0.0
2017-Sep-07 02:29N 33°44' W 118°09'0 0.0
2017-Sep-07 01:59N 33°44' W 118°09'0 0.0
2017-Sep-07 01:29N 33°44' W 118°09'0 0.0
2017-Sep-07 00:59N 33°44' W 118°09'0 0.0
2017-Sep-07 00:29N 33°44' W 118°09'0 0.0
2017-Sep-06 23:59N 33°44' W 118°09'0 0.0
2017-Sep-06 23:29N 33°44' W 118°09'0 0.0
2017-Sep-06 22:59N 33°44' W 118°09'0 0.0
2017-Sep-06 22:29N 33°44' W 118°09'0 0.0
2017-Sep-06 21:56N 33°44' W 118°09'0 0.0
2017-Sep-06 21:29N 33°44' W 118°09'0 0.0
2017-Sep-06 20:59N 33°44' W 118°09'0 0.0
2017-Sep-06 20:29N 33°44' W 118°09'0 0.0
2017-Sep-06 19:59N 33°44' W 118°09'0 0.0
2017-Sep-06 19:29N 33°44' W 118°09'0 0.0
2017-Sep-06 18:59N 33°44' W 118°09'0 0.0
2017-Sep-06 18:29N 33°44' W 118°09'0 0.1
2017-Sep-06 17:59N 33°44' W 118°09'0 0.0
2017-Sep-06 17:29N 33°44' W 118°09'0 0.0
2017-Sep-06 16:59N 33°44' W 118°09'0 0.1
2017-Sep-06 16:26N 33°44' W 118°09'0 0.1
2017-Sep-06 15:59N 33°44' W 118°09'0 0.1
2017-Sep-06 15:29N 33°44' W 118°09'0 0.1
2017-Sep-06 14:59N 33°44' W 118°09'0 0.1
2017-Sep-06 14:29N 33°44' W 118°09'0 0.0
2017-Sep-06 13:59N 33°44' W 118°09'0 0.1
2017-Sep-06 13:29N 33°44' W 118°09'0 0.1
2017-Sep-06 12:59N 33°44' W 118°09'0 0.0
2017-Sep-06 12:29N 33°44' W 118°09'0 0.0
2017-Sep-06 11:59N 33°44' W 118°09'0 0.1
2017-Sep-06 11:26N 33°44' W 118°09'0 0.1
2017-Sep-06 10:59N 33°44' W 118°09'0 0.1
2017-Sep-06 10:29N 33°44' W 118°09'0 0.0
2017-Sep-06 09:59N 33°44' W 118°09'0 0.1
2017-Sep-06 09:29N 33°44' W 118°09'0 0.1
2017-Sep-06 08:59N 33°44' W 118°09'0 0.1
2017-Sep-06 08:29N 33°44' W 118°09'0 0.0
2017-Sep-06 07:59N 33°44' W 118°09'0 0.1
2017-Sep-06 07:29N 33°44' W 118°09'0 0.1
2017-Sep-06 06:59N 33°44' W 118°09'0 0.1
2017-Sep-06 06:29N 33°44' W 118°09'0 0.0
2017-Sep-06 05:59N 33°44' W 118°09'0 0.0
2017-Sep-06 05:29N 33°44' W 118°09'0 0.0
2017-Sep-06 04:59N 33°44' W 118°09'0 0.0
2017-Sep-06 04:29N 33°44' W 118°09'0 0.1
2017-Sep-06 03:56N 33°44' W 118°09'0 0.0
2017-Sep-06 03:29N 33°44' W 118°09'0 0.1
2017-Sep-06 02:59N 33°44' W 118°09'0 0.0
2017-Sep-06 02:29N 33°44' W 118°09'0 0.2
2017-Sep-06 01:59N 33°44' W 118°09'0 0.2
2017-Sep-06 01:29N 33°44' W 118°09'0 0.0
2017-Sep-06 00:59N 33°44' W 118°09'0 0.0
2017-Sep-06 00:29N 33°44' W 118°09'0 0.0
2017-Sep-05 23:59N 33°44' W 118°09'0 0.0
2017-Sep-05 23:29N 33°44' W 118°09'0 0.0
2017-Sep-05 22:59N 33°44' W 118°09'0 0.0
2017-Sep-05 22:29N 33°44' W 118°09'0 0.0
2017-Sep-05 21:59N 33°44' W 118°09'0 0.0
2017-Sep-05 21:29N 33°44' W 118°09'0 0.0
2017-Sep-05 20:59N 33°44' W 118°09'0 0.0
2017-Sep-05 20:29N 33°44' W 118°09'0 0.0
2017-Sep-05 19:59N 33°44' W 118°09'0 0.0
2017-Sep-05 19:29N 33°44' W 118°09'0 0.0
2017-Sep-05 18:59N 33°44' W 118°09'0 0.1
2017-Sep-05 18:29N 33°44' W 118°09'0 0.0
2017-Sep-05 17:59N 33°44' W 118°09'0 0.1
2017-Sep-05 17:29N 33°44' W 118°09'0 0.1
2017-Sep-05 16:59N 33°44' W 118°09'0 0.0
2017-Sep-05 16:29N 33°44' W 118°09'0 0.0
2017-Sep-05 15:59N 33°44' W 118°09'0 0.1
2017-Sep-05 15:26N 33°44' W 118°09'0 0.2
2017-Sep-05 14:59N 33°44' W 118°09'0 0.1
2017-Sep-05 14:29N 33°44' W 118°09'0 0.0
2017-Sep-05 13:56N 33°44' W 118°09'0 0.1
2017-Sep-05 13:29N 33°44' W 118°09'  

Dump ship's entire track history